Time;durP1;ratioP1;P1;durP2;ratioP2;P2;SDS_P1;SDS_P2;PMS_P1;PMS_P2;Temp;Humidity;BMP_temperature;BMP_pressure;BME280_temperature;BME280_humidity;BME280_pressure;Samples;Min_cycle;Max_cycle;Signal;HPM_P1;HPM_P2
2022/08/30 00:01:25;;;;;;;1.88;1.67;;;;;23.10;102010.00;;;;5046053;28;20204;-76
2022/08/30 00:03:53;;;;;;;3.58;1.65;;;;;23.10;102005.00;;;;5036142;28;20258;-77
2022/08/30 00:06:22;;;;;;;2.45;1.40;;;;;23.10;102007.00;;;;5045112;28;20226;-77
2022/08/30 00:08:51;;;;;;;5.05;1.70;;;;;23.10;102011.00;;;;5048098;28;20207;-77
2022/08/30 00:11:21;;;;;;;3.83;1.38;;;;;23.10;102008.00;;;;5048490;28;20207;-77
2022/08/30 00:13:50;;;;;;;2.35;1.55;;;;;23.00;102013.00;;;;5046989;28;20204;-77
2022/08/30 00:16:19;;;;;;;1.80;1.35;;;;;23.00;102002.00;;;;5047316;28;20203;-77
2022/08/30 00:18:48;;;;;;;1.85;1.42;;;;;23.00;102002.00;;;;5048383;28;20234;-77
2022/08/30 00:21:15;;;;;;;3.25;1.70;;;;;23.00;102003.00;;;;5047638;28;20219;-77
2022/08/30 00:23:42;;;;;;;2.45;1.45;;;;;22.90;102001.00;;;;5044877;28;20192;-77
2022/08/30 00:26:10;;;;;;;2.10;1.60;;;;;22.90;102000.00;;;;5047358;28;20210;-77
2022/08/30 00:28:37;;;;;;;2.10;1.30;;;;;22.90;102010.00;;;;5071807;28;20225;-77
2022/08/30 00:31:06;;;;;;;2.90;1.30;;;;;22.90;102002.00;;;;5085347;28;20195;-77
2022/08/30 00:33:33;;;;;;;1.98;1.42;;;;;22.90;102007.00;;;;5079570;28;20214;-77
2022/08/30 00:36:02;;;;;;;3.10;1.30;;;;;22.80;102005.00;;;;5077104;28;20202;-76
2022/08/30 00:38:29;;;;;;;5.00;1.45;;;;;22.80;101997.00;;;;5086581;28;20293;-77
2022/08/30 00:40:58;;;;;;;2.42;1.52;;;;;22.80;101998.00;;;;5088321;28;20201;-77
2022/08/30 00:43:28;;;;;;;2.55;1.40;;;;;22.80;101999.00;;;;5088207;28;20222;-77
2022/08/30 00:45:56;;;;;;;4.00;1.23;;;;;22.80;101997.00;;;;5078651;28;20205;-77
2022/08/30 00:48:24;;;;;;;4.18;2.15;;;;;22.70;102001.00;;;;5085651;28;20213;-77
2022/08/30 00:50:56;;;;;;;2.03;1.35;;;;;22.70;102005.00;;;;5086257;28;20210;-77
2022/08/30 00:53:30;;;;;;;4.18;1.55;;;;;22.70;102011.00;;;;5080765;28;20209;-78
2022/08/30 00:55:59;;;;;;;1.88;1.42;;;;;22.70;102012.00;;;;5088231;28;20671;-77
2022/08/30 00:58:30;;;;;;;2.10;1.75;;;;;22.60;102009.00;;;;5085118;28;20217;-77
2022/08/30 01:00:59;;;;;;;2.88;1.50;;;;;22.60;102011.00;;;;5083836;28;20228;-77
2022/08/30 01:03:28;;;;;;;2.90;1.50;;;;;22.60;102008.00;;;;5086029;28;20202;-77
2022/08/30 01:05:58;;;;;;;4.88;1.77;;;;;22.60;102011.00;;;;5083849;28;20762;-77
2022/08/30 01:08:27;;;;;;;2.63;1.88;;;;;22.60;102004.00;;;;5087466;28;20251;-77
2022/08/30 01:10:56;;;;;;;3.80;1.63;;;;;22.50;102008.00;;;;5084998;28;20239;-77
2022/08/30 01:13:25;;;;;;;2.78;1.67;;;;;22.50;102006.00;;;;5086206;28;20328;-77
2022/08/30 01:15:53;;;;;;;2.45;1.58;;;;;22.50;102014.00;;;;5087356;28;20201;-77
2022/08/30 01:18:22;;;;;;;4.80;1.90;;;;;22.50;102013.00;;;;5085873;28;20644;-77
2022/08/30 01:21:00;;;;;;;3.28;1.83;;;;;22.40;102008.00;;;;5086719;28;20268;-76
2022/08/30 01:23:29;;;;;;;2.03;1.48;;;;;22.40;102010.00;;;;5085725;28;20190;-77
2022/08/30 01:25:58;;;;;;;2.17;1.65;;;;;22.40;102009.00;;;;5086222;28;20660;-77
2022/08/30 01:28:27;;;;;;;3.15;1.92;;;;;22.40;102007.00;;;;5086579;28;20226;-77
2022/08/30 01:30:55;;;;;;;2.10;1.65;;;;;22.40;102003.00;;;;5086495;28;20198;-77
2022/08/30 01:33:23;;;;;;;2.45;1.75;;;;;22.40;102002.00;;;;5086628;28;20190;-77
2022/08/30 01:35:53;;;;;;;2.03;1.65;;;;;22.30;102011.00;;;;5079215;28;20199;-77
2022/08/30 01:38:23;;;;;;;2.22;1.75;;;;;22.30;102010.00;;;;5086615;28;20194;-77
2022/08/30 01:40:58;;;;;;;5.55;2.17;;;;;22.30;102009.00;;;;5085982;28;20198;-77
2022/08/30 01:43:28;;;;;;;5.55;2.63;;;;;22.30;102014.00;;;;5085783;28;20255;-77
2022/08/30 01:45:56;;;;;;;2.95;1.85;;;;;22.30;102011.00;;;;5085025;28;20202;-77
2022/08/30 01:48:23;;;;;;;3.42;2.15;;;;;22.30;102016.00;;;;5084672;28;20203;-77
2022/08/30 01:50:51;;;;;;;3.08;2.03;;;;;22.30;102014.00;;;;5085209;28;20212;-77
2022/08/30 01:53:18;;;;;;;3.20;2.30;;;;;22.20;102012.00;;;;5084924;28;20698;-77
2022/08/30 01:55:45;;;;;;;3.22;2.30;;;;;22.20;102014.00;;;;5084784;28;20205;-77
2022/08/30 01:58:14;;;;;;;2.20;1.83;;;;;22.20;102019.00;;;;5082348;28;20379;-77
2022/08/30 02:00:41;;;;;;;4.68;2.20;;;;;22.20;102011.00;;;;5088632;28;20194;-77
2022/08/30 02:03:09;;;;;;;4.88;1.92;;;;;22.20;102011.00;;;;5089322;28;20205;-77
2022/08/30 02:05:36;;;;;;;2.63;1.52;;;;;22.20;102014.00;;;;5087140;28;20190;-77
2022/08/30 02:08:04;;;;;;;2.22;1.88;;;;;22.10;102016.00;;;;5090201;28;20213;-77
2022/08/30 02:10:31;;;;;;;3.40;1.70;;;;;22.10;102011.00;;;;5089432;28;20552;-77
2022/08/30 02:12:59;;;;;;;2.50;1.95;;;;;22.10;102010.00;;;;5088746;28;20199;-77
2022/08/30 02:15:27;;;;;;;4.45;2.00;;;;;22.10;102008.00;;;;5089575;28;20202;-77
2022/08/30 02:17:55;;;;;;;3.50;2.40;;;;;22.10;102011.00;;;;5090080;28;20660;-77
2022/08/30 02:20:22;;;;;;;3.45;2.13;;;;;22.10;102008.00;;;;5087871;28;20229;-77
2022/08/30 02:22:50;;;;;;;3.33;2.05;;;;;22.10;102011.00;;;;5087059;28;20956;-77
2022/08/30 02:25:17;;;;;;;3.58;2.67;;;;;22.00;102008.00;;;;5089713;28;20539;-77
2022/08/30 02:27:44;;;;;;;2.53;2.22;;;;;22.00;102002.00;;;;5081123;28;20226;-77
2022/08/30 02:30:13;;;;;;;2.92;1.98;;;;;22.00;102001.00;;;;5090523;28;20197;-77
2022/08/30 02:32:41;;;;;;;2.53;2.17;;;;;22.00;102004.00;;;;5088543;28;20195;-77
2022/08/30 02:35:09;;;;;;;4.35;2.58;;;;;22.00;102004.00;;;;5088643;28;20194;-76
2022/08/30 02:37:37;;;;;;;2.30;2.10;;;;;21.90;102005.00;;;;5090318;28;20461;-77
2022/08/30 02:40:06;;;;;;;3.05;2.20;;;;;21.90;102009.00;;;;5088990;28;20214;-77
2022/08/30 02:42:33;;;;;;;3.28;2.20;;;;;21.90;102008.00;;;;5088961;28;20276;-77
2022/08/30 02:45:01;;;;;;;3.13;2.83;;;;;21.90;102003.00;;;;5090904;28;20213;-77
2022/08/30 02:47:28;;;;;;;4.03;2.45;;;;;21.90;102004.00;;;;5073893;28;20195;-76
2022/08/30 02:49:57;;;;;;;5.40;2.33;;;;;21.90;101996.00;;;;5090406;28;20198;-77
2022/08/30 02:52:24;;;;;;;3.50;2.22;;;;;21.90;102002.00;;;;5089933;28;20198;-77
2022/08/30 02:54:51;;;;;;;3.90;2.28;;;;;21.80;101993.00;;;;5089533;28;20201;-77
2022/08/30 02:57:18;;;;;;;3.78;2.25;;;;;21.80;101986.00;;;;5090200;28;20194;-77
2022/08/30 02:59:46;;;;;;;3.50;2.65;;;;;21.80;101979.00;;;;5089288;28;20229;-77
2022/08/30 03:02:14;;;;;;;3.42;2.65;;;;;21.80;101977.00;;;;5088713;28;20194;-77
2022/08/30 03:04:43;;;;;;;3.17;2.80;;;;;21.80;101977.00;;;;5087986;28;20202;-77
2022/08/30 03:07:13;;;;;;;2.97;2.65;;;;;21.70;101981.00;;;;5087151;28;20197;-77
2022/08/30 03:09:40;;;;;;;4.35;3.03;;;;;21.80;101976.00;;;;5088406;28;20650;-77
2022/08/30 03:12:09;;;;;;;4.75;2.63;;;;;21.70;101977.00;;;;5089947;28;20203;-77
2022/08/30 03:14:38;;;;;;;4.13;2.65;;;;;21.80;101980.00;;;;5087633;28;20198;-77
2022/08/30 03:17:06;;;;;;;3.33;2.75;;;;;21.70;101980.00;;;;5078517;28;20213;-77
2022/08/30 03:19:35;;;;;;;2.40;2.20;;;;;21.70;101977.00;;;;5089141;28;20711;-77
2022/08/30 03:22:02;;;;;;;3.40;2.65;;;;;21.70;101977.00;;;;5088732;28;20599;-77
2022/08/30 03:24:31;;;;;;;3.15;2.72;;;;;21.70;101978.00;;;;5086486;28;20199;-78
2022/08/30 03:26:58;;;;;;;2.85;2.55;;;;;21.70;101977.00;;;;5088478;28;20201;-77
2022/08/30 03:29:26;;;;;;;3.50;2.65;;;;;21.70;101976.00;;;;5089197;28;20206;-77
2022/08/30 03:31:53;;;;;;;4.85;3.10;;;;;21.70;101978.00;;;;5087369;28;20199;-77
2022/08/30 03:34:21;;;;;;;2.60;2.40;;;;;21.60;101974.00;;;;5089791;28;20194;-77
2022/08/30 03:36:48;;;;;;;3.13;2.75;;;;;21.60;101982.00;;;;5072843;28;20203;-78
2022/08/30 03:39:15;;;;;;;2.78;2.42;;;;;21.60;101971.00;;;;5089238;28;20222;-77
2022/08/30 03:41:44;;;;;;;3.10;2.80;;;;;21.60;101971.00;;;;5089499;28;20190;-77
2022/08/30 03:44:12;;;;;;;4.97;2.72;;;;;21.60;101964.00;;;;5090882;28;20198;-77
2022/08/30 03:46:39;;;;;;;3.78;2.83;;;;;21.60;101965.00;;;;5087898;28;20209;-78
2022/08/30 03:49:08;;;;;;;4.03;3.38;;;;;21.60;101958.00;;;;5089227;28;20690;-78
2022/08/30 03:51:35;;;;;;;3.67;3.33;;;;;21.50;101964.00;;;;5087929;28;20205;-77
2022/08/30 03:54:02;;;;;;;4.95;3.08;;;;;21.50;101965.00;;;;5077280;28;20201;-77
2022/08/30 03:56:30;;;;;;;4.97;3.05;;;;;21.50;101967.00;;;;5089041;28;20194;-78
2022/08/30 03:58:58;;;;;;;3.60;3.03;;;;;21.50;101969.00;;;;5087563;28;20229;-78
2022/08/30 04:01:26;;;;;;;4.40;3.22;;;;;21.50;101973.00;;;;5087895;28;20576;-77
2022/08/30 04:03:55;;;;;;;3.38;2.85;;;;;21.50;101974.00;;;;5089429;28;20194;-78
2022/08/30 04:06:22;;;;;;;3.58;3.22;;;;;21.50;101972.00;;;;5087369;28;20222;-77
2022/08/30 04:08:50;;;;;;;4.25;3.85;;;;;21.50;101970.00;;;;5085124;28;20194;-77
2022/08/30 04:11:17;;;;;;;3.35;2.75;;;;;21.50;101973.00;;;;5087977;28;20575;-78
2022/08/30 04:13:45;;;;;;;4.68;3.30;;;;;21.40;101979.00;;;;5088584;28;20217;-77
2022/08/30 04:16:13;;;;;;;4.07;3.67;;;;;21.40;101971.00;;;;5087617;28;20336;-77
2022/08/30 04:18:41;;;;;;;6.45;3.95;;;;;21.40;101969.00;;;;5085179;28;20213;-77
2022/08/30 04:21:08;;;;;;;5.80;3.33;;;;;21.40;101972.00;;;;5087782;28;20226;-77
2022/08/30 04:23:35;;;;;;;4.20;3.58;;;;;21.40;101974.00;;;;5084385;28;20203;-77
2022/08/30 04:26:02;;;;;;;3.78;3.30;;;;;21.40;101971.00;;;;5088091;28;20194;-77
2022/08/30 04:28:30;;;;;;;3.50;3.13;;;;;21.40;101979.00;;;;5086293;28;20217;-78
2022/08/30 04:30:57;;;;;;;3.17;2.78;;;;;21.30;101976.00;;;;5087367;28;20194;-79
2022/08/30 04:33:26;;;;;;;4.05;3.63;;;;;21.30;101975.00;;;;5074464;28;20574;-77
2022/08/30 04:35:53;;;;;;;3.08;2.78;;;;;21.30;101968.00;;;;5076998;28;20677;-78
2022/08/30 04:38:21;;;;;;;3.15;2.65;;;;;21.30;101972.00;;;;5082218;28;20209;-78
2022/08/30 04:40:49;;;;;;;4.93;3.65;;;;;21.30;101973.00;;;;5086143;28;20968;-77
2022/08/30 04:43:16;;;;;;;4.65;3.17;;;;;21.20;101977.00;;;;5085564;28;20187;-77
2022/08/30 04:45:44;;;;;;;4.32;3.75;;;;;21.20;101980.00;;;;5087744;28;20194;-78
2022/08/30 04:48:11;;;;;;;4.35;3.38;;;;;21.20;101988.00;;;;5086235;28;20202;-78
2022/08/30 04:50:40;;;;;;;5.60;3.20;;;;;21.20;101989.00;;;;5086881;28;20206;-78
2022/08/30 04:53:07;;;;;;;6.10;3.97;;;;;21.20;101999.00;;;;5089506;28;20668;-78
2022/08/30 04:55:34;;;;;;;3.70;3.40;;;;;21.20;101998.00;;;;5084490;28;20198;-78
2022/08/30 04:58:01;;;;;;;3.40;3.08;;;;;21.20;102008.00;;;;5086858;28;20209;-77
2022/08/30 05:00:29;;;;;;;5.13;3.08;;;;;21.20;102006.00;;;;5086447;28;20225;-77
2022/08/30 05:02:57;;;;;;;6.00;3.50;;;;;21.20;102007.00;;;;5086351;28;20194;-78
2022/08/30 05:05:39;;;;;;;6.88;3.83;;;;;21.20;102007.00;;;;5086642;28;20194;-77
2022/08/30 05:08:08;;;;;;;4.18;3.65;;;;;21.10;102002.00;;;;5088632;28;20209;-77
2022/08/30 05:10:39;;;;;;;4.85;3.78;;;;;21.10;102001.00;;;;5084868;28;20205;-77
2022/08/30 05:13:07;;;;;;;5.40;3.97;;;;;21.20;102004.00;;;;5086748;28;20255;-77
2022/08/30 05:15:34;;;;;;;3.67;3.33;;;;;21.10;102011.00;;;;5085776;28;20205;-77
2022/08/30 05:18:02;;;;;;;7.20;4.18;;;;;21.10;102014.00;;;;5081445;28;20194;-77
2022/08/30 05:20:29;;;;;;;4.13;3.72;;;;;21.10;102012.00;;;;5085920;28;20588;-77
2022/08/30 05:22:57;;;;;;;4.50;3.55;;;;;21.10;102018.00;;;;5086279;28;20198;-77
2022/08/30 05:25:28;;;;;;;4.68;3.28;;;;;21.10;102018.00;;;;5083095;28;20186;-77
2022/08/30 05:27:56;;;;;;;3.83;3.53;;;;;21.10;102015.00;;;;5084712;28;20726;-77
2022/08/30 05:30:25;;;;;;;3.67;3.15;;;;;21.10;102029.00;;;;5086563;28;20281;-76
2022/08/30 05:32:52;;;;;;;4.18;3.50;;;;;21.10;102026.00;;;;5081894;28;20210;-77
2022/08/30 05:35:21;;;;;;;6.65;4.35;;;;;21.10;102024.00;;;;5084813;28;20206;-77
2022/08/30 05:37:49;;;;;;;6.22;4.55;;;;;21.20;102020.00;;;;5085392;28;20209;-77
2022/08/30 05:40:17;;;;;;;5.07;3.58;;;;;21.20;102017.00;;;;5086197;28;20264;-79
2022/08/30 05:42:46;;;;;;;3.88;3.47;;;;;21.20;102032.00;;;;5087094;28;20198;-79
2022/08/30 05:45:15;;;;;;;3.63;3.33;;;;;21.20;102028.00;;;;5083101;28;21013;-77
2022/08/30 05:47:42;;;;;;;4.15;3.45;;;;;21.20;102035.00;;;;5084916;28;20209;-78
2022/08/30 05:50:10;;;;;;;4.03;3.22;;;;;21.30;102034.00;;;;5087469;28;20209;-78
2022/08/30 05:52:39;;;;;;;4.97;3.60;;;;;21.30;102032.00;;;;5086784;28;20544;-78
2022/08/30 05:55:08;;;;;;;3.83;3.42;;;;;21.30;102028.00;;;;5086603;28;20202;-77
2022/08/30 05:57:36;;;;;;;5.90;3.42;;;;;21.40;102032.00;;;;5085429;28;20205;-78
2022/08/30 06:00:07;;;;;;;4.68;3.75;;;;;21.40;102033.00;;;;5084747;28;20225;-78
2022/08/30 06:02:34;;;;;;;4.35;3.05;;;;;21.40;102030.00;;;;5083908;28;20201;-78
2022/08/30 06:05:03;;;;;;;4.35;3.65;;;;;21.50;102034.00;;;;5085270;28;20198;-79
2022/08/30 06:07:31;;;;;;;5.45;3.42;;;;;21.50;102040.00;;;;5086179;28;20197;-79
2022/08/30 06:09:58;;;;;;;8.18;4.18;;;;;21.60;102040.00;;;;5086153;28;20244;-79
2022/08/30 06:12:26;;;;;;;5.22;3.35;;;;;21.60;102043.00;;;;5086225;28;20205;-80
2022/08/30 06:14:53;;;;;;;4.10;3.15;;;;;21.60;102041.00;;;;5087015;28;20198;-80
2022/08/30 06:17:22;;;;;;;4.88;3.05;;;;;21.70;102039.00;;;;5086438;28;20571;-79
2022/08/30 06:19:49;;;;;;;6.45;3.95;;;;;21.80;102042.00;;;;5085294;28;20206;-80
2022/08/30 06:22:16;;;;;;;4.35;3.83;;;;;21.80;102040.00;;;;5086393;28;20221;-80
2022/08/30 06:24:44;;;;;;;3.90;3.45;;;;;21.90;102039.00;;;;5085457;28;20227;-80
2022/08/30 06:27:11;;;;;;;3.97;3.45;;;;;21.90;102035.00;;;;5085900;28;20209;-81
2022/08/30 06:29:38;;;;;;;3.83;3.15;;;;;21.90;102036.00;;;;5082869;28;20653;-81
2022/08/30 06:32:06;;;;;;;6.07;3.60;;;;;22.00;102039.00;;;;5086787;28;20946;-78
2022/08/30 06:34:34;;;;;;;3.78;3.20;;;;;22.00;102044.00;;;;5087096;28;20572;-79
2022/08/30 06:37:02;;;;;;;3.42;3.13;;;;;22.00;102038.00;;;;5086935;28;20202;-80
2022/08/30 06:39:29;;;;;;;4.78;3.08;;;;;22.10;102043.00;;;;5087386;28;20195;-79
2022/08/30 06:41:56;;;;;;;3.97;3.05;;;;;22.10;102046.00;;;;5083856;28;20226;-79
2022/08/30 06:44:23;;;;;;;3.38;3.00;;;;;22.10;102039.00;;;;5084911;28;20201;-75
2022/08/30 06:46:51;;;;;;;4.28;3.45;;;;;22.20;102038.00;;;;5089640;28;20212;-78
2022/08/30 06:49:18;;;;;;;4.70;3.50;;;;;22.20;102037.00;;;;5089720;28;20206;-77
2022/08/30 06:51:47;;;;;;;3.47;3.00;;;;;22.30;102037.00;;;;5090631;28;20198;-75
2022/08/30 06:54:14;;;;;;;4.63;3.45;;;;;22.30;102031.00;;;;5090625;28;20205;-77
2022/08/30 06:56:41;;;;;;;2.67;2.47;;;;;22.40;102030.00;;;;5089163;28;20209;-78
2022/08/30 06:59:09;;;;;;;6.15;3.20;;;;;22.50;102046.00;;;;5078254;28;20194;-78
2022/08/30 07:01:36;;;;;;;3.47;3.17;;;;;22.50;102039.00;;;;5083657;28;20233;-79
2022/08/30 07:04:04;;;;;;;5.25;3.13;;;;;22.60;102034.00;;;;5088373;28;20202;-78
2022/08/30 07:06:32;;;;;;;3.65;2.70;;;;;22.70;102036.00;;;;5085447;28;20199;-78
2022/08/30 07:09:00;;;;;;;3.20;2.90;;;;;22.80;102045.00;;;;5087766;28;20198;-79
2022/08/30 07:11:30;;;;;;;4.40;2.55;;;;;22.90;102036.00;;;;5086765;28;20671;-76
2022/08/30 07:13:58;;;;;;;2.92;2.40;;;;;23.00;102037.00;;;;5088770;28;20205;-77
2022/08/30 07:16:29;;;;;;;4.15;2.45;;;;;23.00;102048.00;;;;5089927;28;20222;-78
2022/08/30 07:18:57;;;;;;;3.15;2.42;;;;;23.10;102042.00;;;;5087809;28;20209;-77
2022/08/30 07:21:27;;;;;;;3.67;2.40;;;;;23.20;102045.00;;;;5089482;28;20226;-78
2022/08/30 07:23:56;;;;;;;2.42;2.22;;;;;23.30;102045.00;;;;5086537;28;20209;-77
2022/08/30 07:26:27;;;;;;;2.72;2.30;;;;;23.40;102041.00;;;;5097820;28;20675;-78
2022/08/30 07:28:55;;;;;;;3.42;2.17;;;;;23.50;102044.00;;;;5081849;28;20230;-78
2022/08/30 07:31:23;;;;;;;2.45;1.58;;;;;23.60;102041.00;;;;5085984;28;20668;-77
2022/08/30 07:33:51;;;;;;;4.00;1.92;;;;;23.60;102040.00;;;;5087565;28;20205;-77
2022/08/30 07:36:20;;;;;;;2.25;1.77;;;;;23.80;102051.00;;;;5083960;28;20226;-76
2022/08/30 07:38:48;;;;;;;3.65;1.73;;;;;23.80;102037.00;;;;5089553;28;20205;-77
2022/08/30 07:41:22;;;;;;;2.03;1.50;;;;;23.90;102047.00;;;;5089875;28;20225;-77
2022/08/30 07:43:51;;;;;;;3.22;1.42;;;;;24.00;102051.00;;;;5084604;28;20197;-77
2022/08/30 07:46:19;;;;;;;3.00;1.50;;;;;24.10;102045.00;;;;5086106;28;20676;-77
2022/08/30 07:48:46;;;;;;;3.83;1.50;;;;;24.20;102058.00;;;;5084902;28;20202;-77
2022/08/30 07:51:17;;;;;;;1.40;1.00;;;;;24.30;102059.00;;;;5089002;28;20196;-77
2022/08/30 07:53:44;;;;;;;2.22;1.17;;;;;24.40;102055.00;;;;5087884;28;20203;-77
2022/08/30 07:56:12;;;;;;;2.15;1.02;;;;;24.50;102059.00;;;;5084856;28;20191;-77
2022/08/30 07:58:39;;;;;;;1.08;0.82;;;;;24.60;102055.00;;;;5069941;28;20195;-77
2022/08/30 08:01:10;;;;;;;1.50;0.70;;;;;24.60;102062.00;;;;5086446;28;20222;-77
2022/08/30 08:03:39;;;;;;;3.10;1.05;;;;;24.80;102064.00;;;;5088570;28;20194;-77
2022/08/30 08:06:07;;;;;;;3.05;0.63;;;;;24.80;102065.00;;;;5088766;28;20198;-76
2022/08/30 08:08:35;;;;;;;1.65;1.25;;;;;25.00;102067.00;;;;5086073;28;20665;-76
2022/08/30 08:11:07;;;;;;;1.08;0.70;;;;;25.00;102063.00;;;;5082060;28;20191;-76
2022/08/30 08:13:35;;;;;;;0.75;0.68;;;;;25.10;102068.00;;;;5089317;28;20224;-76
2022/08/30 08:16:02;;;;;;;0.80;0.70;;;;;25.20;102064.00;;;;5085611;28;20209;-76
2022/08/30 08:18:31;;;;;;;1.02;0.60;;;;;25.30;102063.00;;;;5088518;28;20236;-76
2022/08/30 08:20:58;;;;;;;1.77;0.63;;;;;25.40;102067.00;;;;5086576;28;20230;-77
2022/08/30 08:23:27;;;;;;;1.90;0.70;;;;;25.50;102056.00;;;;5081979;28;20191;-76
2022/08/30 08:25:55;;;;;;;1.52;0.88;;;;;25.60;102065.00;;;;5076872;28;20653;-77
2022/08/30 08:28:23;;;;;;;2.13;0.90;;;;;25.60;102060.00;;;;5083591;28;20222;-76
2022/08/30 08:30:50;;;;;;;0.70;0.57;;;;;25.80;102052.00;;;;5085803;28;20570;-77
2022/08/30 08:33:19;;;;;;;1.00;0.80;;;;;25.80;102064.00;;;;5087804;28;20206;-76
2022/08/30 08:35:48;;;;;;;2.00;0.77;;;;;25.90;102065.00;;;;5091312;28;20657;-76
2022/08/30 08:38:16;;;;;;;1.95;0.80;;;;;26.10;102070.00;;;;5070446;28;20199;-76
2022/08/30 08:41:16;;;;;;;5.00;0.88;;;;;26.10;102079.00;;;;5087849;28;20224;-76
2022/08/30 08:43:44;;;;;;;1.27;0.60;;;;;26.30;102070.00;;;;5088536;28;20688;-76
2022/08/30 08:46:15;;;;;;;1.33;0.80;;;;;26.30;102074.00;;;;5089691;28;20304;-76
2022/08/30 08:48:48;;;;;;;1.67;0.90;;;;;26.40;102072.00;;;;5088605;28;20194;-76
2022/08/30 08:54:08;;;;;;;2.03;0.90;;;;;26.60;102072.00;;;;5083658;28;20209;-76
2022/08/30 08:56:36;;;;;;;2.03;0.90;;;;;26.70;102075.00;;;;5089513;28;20197;-76
2022/08/30 08:59:07;;;;;;;1.27;0.82;;;;;26.70;102075.00;;;;5091069;28;20229;-76
2022/08/30 09:01:37;;;;;;;1.70;0.90;;;;;26.90;102068.00;;;;5084308;28;20218;-76
2022/08/30 09:04:10;;;;;;;2.70;0.95;;;;;26.90;102066.00;;;;5088033;28;20287;-76
2022/08/30 09:06:48;;;;;;;3.70;0.82;;;;;27.00;102069.00;;;;5086973;28;20680;-77
2022/08/30 09:09:19;;;;;;;1.35;0.98;;;;;27.10;102065.00;;;;5086629;28;20198;-76
2022/08/30 09:11:47;;;;;;;1.02;0.52;;;;;27.10;102072.00;;;;5075471;28;20756;-77
2022/08/30 09:14:18;;;;;;;0.90;0.63;;;;;27.20;102066.00;;;;5087418;28;20199;-76
2022/08/30 09:16:58;;;;;;;1.85;0.50;;;;;27.30;102062.00;;;;5086084;28;20258;-76
2022/08/30 09:19:31;;;;;;;0.75;0.63;;;;;27.40;102078.00;;;;5088724;28;20201;-77
2022/08/30 09:22:02;;;;;;;1.30;0.70;;;;;27.40;102064.00;;;;5088356;28;20222;-77
2022/08/30 09:24:42;;;;;;;0.95;0.63;;;;;27.50;102067.00;;;;5084753;28;20198;-77
2022/08/30 09:27:22;;;;;;;1.25;0.70;;;;;27.50;102060.00;;;;5086276;28;20255;-76
2022/08/30 09:29:52;;;;;;;1.30;0.73;;;;;27.60;102073.00;;;;5087185;28;20570;-76
2022/08/30 09:32:29;;;;;;;1.10;0.60;;;;;27.70;102066.00;;;;5086176;28;20209;-76
2022/08/30 09:34:56;;;;;;;2.13;0.80;;;;;27.80;102081.00;;;;5075410;28;20206;-77
2022/08/30 09:37:33;;;;;;;5.63;0.73;;;;;27.80;102070.00;;;;5083907;28;20285;-76
2022/08/30 09:40:01;;;;;;;2.22;0.77;;;;;27.90;102075.00;;;;5073243;28;20514;-77
2022/08/30 09:42:30;;;;;;;1.08;0.77;;;;;27.90;102077.00;;;;5086786;28;20233;-76
2022/08/30 09:45:10;;;;;;;1.35;0.77;;;;;28.00;102078.00;;;;5085774;28;20194;-76
2022/08/30 09:47:41;;;;;;;2.03;0.60;;;;;28.00;102083.00;;;;5083054;28;20213;-77
2022/08/30 09:50:11;;;;;;;2.67;0.73;;;;;28.00;102084.00;;;;5087255;28;20198;-77
2022/08/30 09:53:01;;;;;;;2.05;1.05;;;;;28.00;102082.00;;;;5084895;28;20199;-77
2022/08/30 09:55:49;;;;;;;1.92;0.73;;;;;28.10;102084.00;;;;5087233;28;20680;-77
2022/08/30 09:58:23;;;;;;;0.93;0.82;;;;;28.20;102076.00;;;;5087671;28;20201;-76
2022/08/30 10:00:57;;;;;;;1.25;0.63;;;;;28.30;102078.00;;;;5087636;28;20206;-77
2022/08/30 10:03:31;;;;;;;1.60;0.40;;;;;28.40;102085.00;;;;5087143;28;20202;-76
2022/08/30 10:06:06;;;;;;;1.77;1.10;;;;;28.50;102081.00;;;;5085403;28;20202;-76
2022/08/30 10:08:48;;;;;;;0.77;0.55;;;;;28.50;102082.00;;;;5086818;28;20735;-77
2022/08/30 10:11:23;;;;;;;8.93;0.70;;;;;28.60;102083.00;;;;5086915;28;20233;-77
2022/08/30 10:14:08;;;;;;;2.15;0.88;;;;;28.70;102078.00;;;;5086927;28;20186;-77
2022/08/30 10:16:45;;;;;;;1.20;0.98;;;;;28.80;102082.00;;;;5086605;28;20206;-77
2022/08/30 10:19:31;;;;;;;2.10;0.80;;;;;28.80;102078.00;;;;5084525;28;20691;-77
2022/08/30 10:22:03;;;;;;;4.72;0.90;;;;;28.90;102079.00;;;;5084432;28;20221;-77
2022/08/30 10:24:39;;;;;;;1.55;0.80;;;;;29.00;102083.00;;;;5093201;28;20190;-77
2022/08/30 10:27:09;;;;;;;1.40;0.80;;;;;29.10;102082.00;;;;5091363;28;20281;-76
2022/08/30 10:29:42;;;;;;;1.05;0.80;;;;;29.20;102079.00;;;;5091572;28;20656;-77
2022/08/30 10:32:16;;;;;;;1.15;0.77;;;;;29.20;102080.00;;;;5091657;28;20212;-77
2022/08/30 10:34:50;;;;;;;1.15;0.70;;;;;29.30;102080.00;;;;5081906;28;20184;-77
2022/08/30 10:37:20;;;;;;;1.50;0.70;;;;;29.30;102088.00;;;;5088647;28;20198;-77
2022/08/30 10:39:51;;;;;;;0.90;0.70;;;;;29.40;102084.00;;;;5081841;28;20255;-76
2022/08/30 10:42:22;;;;;;;3.08;1.15;;;;;29.50;102082.00;;;;5091340;28;20225;-76
2022/08/30 10:44:55;;;;;;;4.35;1.05;;;;;29.50;102089.00;;;;5081680;28;20198;-77
2022/08/30 10:47:30;;;;;;;0.82;0.52;;;;;29.60;102077.00;;;;5088565;28;20202;-77
2022/08/30 10:50:09;;;;;;;1.20;0.57;;;;;29.60;102078.00;;;;5089515;28;20202;-78
2022/08/30 10:52:41;;;;;;;1.20;0.52;;;;;29.70;102075.00;;;;5090485;28;20201;-77
2022/08/30 10:55:15;;;;;;;1.45;0.77;;;;;29.70;102071.00;;;;5087543;28;20211;-77
2022/08/30 10:57:44;;;;;;;1.35;0.70;;;;;29.70;102073.00;;;;5088865;28;20201;-77
2022/08/30 11:00:15;;;;;;;1.10;0.80;;;;;29.70;102076.00;;;;5090029;28;20624;-77
2022/08/30 11:03:28;;;;;;;1.23;0.50;;;;;29.70;102077.00;;;;5088485;28;20574;-76
2022/08/30 11:06:12;;;;;;;0.70;0.70;;;;;29.80;102075.00;;;;5065117;28;20202;-77
2022/08/30 11:08:58;;;;;;;1.77;0.40;;;;;29.80;102073.00;;;;5077998;28;20202;-77
2022/08/30 11:11:39;;;;;;;0.90;0.65;;;;;29.90;102074.00;;;;5082087;28;20195;-77
2022/08/30 11:14:09;;;;;;;0.75;0.52;;;;;30.00;102078.00;;;;5086494;28;20201;-77
2022/08/30 11:16:39;;;;;;;2.30;0.88;;;;;30.00;102068.00;;;;5087829;28;20197;-77
2022/08/30 11:19:17;;;;;;;2.53;0.60;;;;;30.00;102075.00;;;;5085857;28;20210;-77
2022/08/30 11:21:45;;;;;;;2.65;0.68;;;;;30.00;102062.00;;;;5080837;28;20703;-76
2022/08/30 11:24:15;;;;;;;1.95;0.98;;;;;30.00;102061.00;;;;5089965;28;20191;-77
2022/08/30 11:26:59;;;;;;;1.27;0.70;;;;;30.00;102062.00;;;;5090292;28;20660;-77
2022/08/30 11:29:42;;;;;;;1.00;0.63;;;;;30.00;102062.00;;;;5090226;28;20578;-77
2022/08/30 11:33:00;;;;;;;0.95;0.63;;;;;30.00;102071.00;;;;5087950;28;20581;-76
2022/08/30 11:35:42;;;;;;;1.20;0.80;;;;;30.10;102076.00;;;;5086309;28;20634;-76
2022/08/30 11:38:18;;;;;;;1.25;0.63;;;;;30.20;102070.00;;;;5088394;28;20198;-77
2022/08/30 11:40:48;;;;;;;2.75;0.70;;;;;30.20;102063.00;;;;5087518;28;20664;-77
2022/08/30 11:43:56;;;;;;;2.78;1.00;;;;;30.10;102065.00;;;;5089120;28;20256;-76
2022/08/30 11:46:38;;;;;;;1.13;0.68;;;;;30.10;102053.00;;;;5088233;28;20205;-77
2022/08/30 11:49:44;;;;;;;1.27;0.52;;;;;30.10;102052.00;;;;5088201;28;20205;-76
2022/08/30 11:52:22;;;;;;;0.93;0.60;;;;;30.30;102048.00;;;;5074240;28;20615;-76
2022/08/30 11:55:07;;;;;;;1.35;0.73;;;;;30.30;102057.00;;;;5088328;28;20217;-78
2022/08/30 11:57:48;;;;;;;1.23;0.90;;;;;30.30;102061.00;;;;5086876;28;20198;-77
2022/08/30 12:00:31;;;;;;;1.35;0.70;;;;;30.40;102042.00;;;;5087309;28;20218;-78
2022/08/30 12:03:02;;;;;;;0.90;0.57;;;;;30.50;102047.00;;;;5086923;28;20218;-78
2022/08/30 12:05:57;;;;;;;2.58;0.82;;;;;30.40;102048.00;;;;5086494;28;20194;-78
2022/08/30 12:08:47;;;;;;;2.58;0.90;;;;;30.40;102046.00;;;;5084701;28;20569;-78
2022/08/30 12:12:03;;;;;;;2.17;0.60;;;;;30.50;102038.00;;;;5082814;28;20255;-78
2022/08/30 12:14:41;;;;;;;0.70;0.57;;;;;30.60;102041.00;;;;5084973;28;20202;-78
2022/08/30 12:20:03;;;;;;;1.95;0.85;;;;;30.80;102032.00;;;;5086156;28;20691;-78
2022/08/30 12:22:36;;;;;;;1.33;0.77;;;;;30.80;102034.00;;;;5085569;28;20224;-78
2022/08/30 12:25:19;;;;;;;1.08;0.82;;;;;30.80;102035.00;;;;5086272;28;20186;-79
2022/08/30 12:27:47;;;;;;;2.08;0.73;;;;;30.90;102039.00;;;;5084351;28;20225;-78
2022/08/30 12:30:14;;;;;;;0.88;0.55;;;;;30.90;102036.00;;;;5085551;28;20206;-76
2022/08/30 12:32:47;;;;;;;1.30;0.70;;;;;30.80;102038.00;;;;5081810;28;20221;-76